createdAt,value
2019-04-25T00:02:45.315Z,79.68
2019-04-25T00:05:15.045Z,79.74
2019-04-25T00:07:43.816Z,79.70
2019-04-25T00:10:13.782Z,79.43
2019-04-25T00:12:43.256Z,78.84
2019-04-25T00:15:11.507Z,78.61
2019-04-25T00:17:40.183Z,77.98
2019-04-25T00:20:08.990Z,77.59
2019-04-25T00:22:45.453Z,77.32
2019-04-25T00:25:45.200Z,76.81
2019-04-25T00:28:11.711Z,76.52
2019-04-25T00:30:42.316Z,75.98
2019-04-25T00:33:11.542Z,76.16
2019-04-25T00:35:39.301Z,75.97
2019-04-25T00:38:06.843Z,76.12
2019-04-25T00:40:34.532Z,76.19
2019-04-25T00:43:02.047Z,76.42
2019-04-25T00:45:29.673Z,76.93
2019-04-25T00:47:57.245Z,77.07
2019-04-25T00:50:24.892Z,78.38
2019-04-25T00:52:53.670Z,78.24
2019-04-25T00:55:28.523Z,76.08
2019-04-25T00:57:55.436Z,78.24
2019-04-25T01:00:49.051Z,78.89
2019-04-25T01:03:22.531Z,79.24
2019-04-25T01:05:50.132Z,79.26
2019-04-25T01:08:17.854Z,79.84
2019-04-25T01:10:45.867Z,79.94
2019-04-25T01:13:13.544Z,80.39
2019-04-25T01:15:42.568Z,80.69
2019-04-25T01:18:12.211Z,81.12
2019-04-25T01:20:40.083Z,81.60
2019-04-25T01:23:07.651Z,81.89
2019-04-25T01:25:41.111Z,82.35
2019-04-25T01:28:06.008Z,82.52
2019-04-25T01:30:34.014Z,82.87
2019-04-25T01:33:03.491Z,83.07
2019-04-25T01:35:50.561Z,83.37
2019-04-25T01:38:29.420Z,84.18
2019-04-25T01:41:23.880Z,84.60
2019-04-25T01:43:58.382Z,85.15
2019-04-25T01:46:25.265Z,85.44
2019-04-25T01:48:54.496Z,85.69
2019-04-25T01:51:23.982Z,85.75
2019-04-25T01:53:52.617Z,86.20
2019-04-25T01:56:23.034Z,86.46
2019-04-25T01:58:54.479Z,86.45
2019-04-25T02:01:24.149Z,85.74
2019-04-25T02:03:53.520Z,86.31
2019-04-25T02:06:21.267Z,86.44
2019-04-25T02:08:48.787Z,85.36
2019-04-25T02:11:28.215Z,85.45
2019-04-25T02:13:56.052Z,85.58
2019-04-25T02:16:24.439Z,86.01
2019-04-25T02:18:54.209Z,86.37
2019-04-25T02:21:21.531Z,86.48
2019-04-25T02:23:49.128Z,86.76
2019-04-25T02:26:18.677Z,86.79
2019-04-25T02:28:46.199Z,86.98
2019-04-25T02:31:15.343Z,87.18
2019-04-25T02:33:44.290Z,87.27
2019-04-25T02:36:14.470Z,87.22
2019-04-25T02:38:43.998Z,87.67
2019-04-25T02:41:11.128Z,87.87
2019-04-25T02:43:38.686Z,87.93
2019-04-25T02:46:28.833Z,88.14
2019-04-25T02:49:28.781Z,88.20
2019-04-25T02:52:08.453Z,88.50
2019-04-25T02:54:35.602Z,88.56
2019-04-25T02:57:06.612Z,88.47
2019-04-25T02:59:34.596Z,88.76
2019-04-25T03:02:05.225Z,88.87
2019-04-25T03:04:33.930Z,89.12
2019-04-25T03:07:03.605Z,89.08
2019-04-25T03:09:31.873Z,89.52
2019-04-25T03:11:59.950Z,89.92
2019-04-25T03:14:27.911Z,90.07
2019-04-25T03:16:55.626Z,90.14
2019-04-25T03:19:48.911Z,89.60
2019-04-25T03:22:19.609Z,89.93
2019-04-25T03:24:47.240Z,90.02
2019-04-25T03:27:14.849Z,90.03
2019-04-25T03:29:43.888Z,89.64
2019-04-25T03:32:16.707Z,89.35
2019-04-25T03:34:41.344Z,89.48
2019-04-25T03:37:09.461Z,89.70
2019-04-25T03:39:37.035Z,90.00
2019-04-25T03:42:05.987Z,90.08
2019-04-25T03:44:33.853Z,90.07
2019-04-25T03:47:03.400Z,90.42
2019-04-25T03:49:30.879Z,90.48
2019-04-25T03:51:58.482Z,90.72
2019-04-25T03:54:26.050Z,90.83
2019-04-25T03:56:56.110Z,90.55
2019-04-25T03:59:24.226Z,90.80
2019-04-25T04:01:53.734Z,90.50
2019-04-25T04:04:23.569Z,90.50
2019-04-25T04:06:51.066Z,90.77
2019-04-25T04:09:18.701Z,90.98
2019-04-25T04:11:46.282Z,90.99
2019-04-25T04:14:15.385Z,90.98
2019-04-25T04:17:05.075Z,90.78
2019-04-25T04:19:37.435Z,90.71
2019-04-25T04:22:20.745Z,91.18
2019-04-25T04:24:51.649Z,91.21
2019-04-25T04:27:19.191Z,90.74
2019-04-25T04:29:47.255Z,90.79
2019-04-25T04:32:16.089Z,91.05
2019-04-25T04:34:45.505Z,90.98
2019-04-25T04:37:14.819Z,91.21
2019-04-25T04:39:43.722Z,91.23
2019-04-25T04:42:11.718Z,91.40
2019-04-25T04:44:39.535Z,91.35
2019-04-25T04:47:08.861Z,91.39
2019-04-25T04:49:36.572Z,91.32
2019-04-25T04:52:06.384Z,91.34
2019-04-25T04:54:34.455Z,91.47
2019-04-25T04:57:16.195Z,91.83
2019-04-25T04:59:33.694Z,91.78
2019-04-25T05:02:33.362Z,91.96
2019-04-25T05:05:26.522Z,91.89
2019-04-25T05:07:57.777Z,91.63
2019-04-25T05:10:25.495Z,91.53
2019-04-25T05:12:53.348Z,91.69
2019-04-25T05:15:20.997Z,91.37
2019-04-25T05:17:48.574Z,91.14
2019-04-25T05:20:17.576Z,90.90
2019-04-25T05:22:45.653Z,90.71
2019-04-25T05:25:16.247Z,90.42
2019-04-25T05:27:57.783Z,89.20
2019-04-25T05:30:17.967Z,88.55
2019-04-25T05:32:45.770Z,88.18
2019-04-25T05:35:14.962Z,88.51
2019-04-25T05:37:43.576Z,87.83
2019-04-25T05:40:11.448Z,87.07
2019-04-25T05:43:00.239Z,86.82
2019-04-25T05:45:29.134Z,87.46
2019-04-25T05:47:56.915Z,87.12
2019-04-25T05:50:25.212Z,86.36
2019-04-25T05:52:54.192Z,85.69
2019-04-25T05:55:22.169Z,85.45
2019-04-25T05:57:50.347Z,83.14
2019-04-25T06:00:18.928Z,82.83
2019-04-25T06:02:46.976Z,81.85
2019-04-25T06:05:14.655Z,81.42
2019-04-25T06:07:43.238Z,81.65
2019-04-25T06:10:31.085Z,80.94
2019-04-25T06:13:27.774Z,81.55
2019-04-25T06:16:03.450Z,81.32
2019-04-25T06:18:54.942Z,78.66
2019-04-25T06:21:23.601Z,76.12
2019-04-25T06:24:18.936Z,73.65
2019-04-25T06:26:59.173Z,73.46
2019-04-25T06:29:26.833Z,73.59
2019-04-25T06:32:04.266Z,71.46
2019-04-25T06:34:26.769Z,71.28
2019-04-25T06:36:53.676Z,70.57
2019-04-25T06:39:22.000Z,72.59
2019-04-25T06:41:49.653Z,70.25
2019-04-25T06:44:40.413Z,70.08
2019-04-25T06:47:34.087Z,67.71
2019-04-25T06:50:02.047Z,67.71
2019-04-25T06:52:31.830Z,67.58
2019-04-25T06:54:59.122Z,67.43
2019-04-25T06:57:28.235Z,66.01
2019-04-25T06:59:56.225Z,65.27
2019-04-25T07:02:25.395Z,63.39
2019-04-25T07:04:54.034Z,63.21
2019-04-25T07:07:24.276Z,60.75
2019-04-25T07:09:53.306Z,60.01
2019-04-25T07:12:24.110Z,58.62
2019-04-25T07:14:50.744Z,58.53
2019-04-25T07:17:18.473Z,56.60
2019-04-25T07:19:46.134Z,55.96
2019-04-25T07:22:15.433Z,56.98
2019-04-25T07:24:43.996Z,56.02
2019-04-25T07:27:37.520Z,55.37
2019-04-25T07:30:45.454Z,55.79
2019-04-25T07:33:13.796Z,56.52
2019-04-25T07:35:43.337Z,54.73
2019-04-25T07:38:11.149Z,53.74
2019-04-25T07:40:40.409Z,52.63
2019-04-25T07:43:08.124Z,46.97
2019-04-25T07:45:36.288Z,43.50
2019-04-25T07:48:07.303Z,40.51
2019-04-25T07:50:35.409Z,37.97
2019-04-25T07:53:03.629Z,36.64
2019-04-25T07:55:33.497Z,35.56
2019-04-25T07:58:03.171Z,34.36
2019-04-25T08:00:31.423Z,34.89
2019-04-25T08:02:59.058Z,35.02
2019-04-25T08:05:27.788Z,33.58
2019-04-25T08:07:55.702Z,32.04
2019-04-25T08:10:25.759Z,32.80
2019-04-25T08:12:54.959Z,31.59
2019-04-25T08:15:47.944Z,31.07
2019-04-25T08:18:15.506Z,31.51
2019-04-25T08:20:43.455Z,31.14
2019-04-25T08:23:11.205Z,30.34
2019-04-25T08:25:40.030Z,29.29
2019-04-25T08:28:08.212Z,29.00
2019-04-25T08:30:36.688Z,29.63
2019-04-25T08:33:05.343Z,28.36
2019-04-25T08:35:34.229Z,28.11
2019-04-25T08:38:03.710Z,27.43
2019-04-25T08:40:33.104Z,27.35
2019-04-25T08:43:03.444Z,26.66
2019-04-25T08:45:31.537Z,26.53
2019-04-25T08:47:59.094Z,25.48
2019-04-25T08:50:39.292Z,26.25
2019-04-25T08:53:06.154Z,26.04
2019-04-25T08:55:46.744Z,24.62
2019-04-25T08:58:26.648Z,24.29
2019-04-25T09:01:14.158Z,23.87
2019-04-25T09:03:47.922Z,22.70
2019-04-25T09:06:15.600Z,23.57
2019-04-25T09:08:44.018Z,23.20
2019-04-25T09:11:13.540Z,23.01
2019-04-25T09:13:41.072Z,22.31
2019-04-25T09:16:08.804Z,23.18
2019-04-25T09:18:37.007Z,21.58
2019-04-25T09:21:04.768Z,21.49
2019-04-25T09:23:34.430Z,21.58
2019-04-25T09:26:01.846Z,21.70
2019-04-25T09:28:30.502Z,20.93
2019-04-25T09:30:58.221Z,21.72
2019-04-25T09:33:25.774Z,20.85
2019-04-25T09:35:54.077Z,20.99
2019-04-25T09:38:21.847Z,21.53
2019-04-25T09:40:49.488Z,22.41
2019-04-25T09:43:17.046Z,21.92
2019-04-25T09:45:59.125Z,22.93
2019-04-25T09:48:54.169Z,23.54
2019-04-25T09:51:26.149Z,23.43
2019-04-25T09:54:08.950Z,22.60
2019-04-25T09:56:41.095Z,21.92
2019-04-25T09:59:13.849Z,21.22
2019-04-25T10:01:44.892Z,21.64
2019-04-25T10:04:12.521Z,21.55
2019-04-25T10:06:40.688Z,22.28
2019-04-25T10:09:09.619Z,21.72
2019-04-25T10:11:39.975Z,21.43
2019-04-25T10:14:35.374Z,22.86
2019-04-25T10:17:03.795Z,21.69
2019-04-25T10:19:31.700Z,21.12
2019-04-25T10:21:59.369Z,20.12
2019-04-25T10:24:26.983Z,21.21
2019-04-25T10:26:54.897Z,20.87
2019-04-25T10:29:22.431Z,20.62
2019-04-25T10:31:50.095Z,22.26
2019-04-25T10:34:17.697Z,21.48
2019-04-25T10:36:45.469Z,22.00
2019-04-25T10:39:14.619Z,21.34
2019-04-25T10:41:44.749Z,21.84
2019-04-25T10:44:11.889Z,20.00
2019-04-25T10:46:40.187Z,20.69
2019-04-25T10:49:08.055Z,21.59
2019-04-25T10:51:35.880Z,21.36
2019-04-25T10:54:04.190Z,22.46
2019-04-25T10:56:33.498Z,20.95
2019-04-25T10:59:01.521Z,20.09
2019-04-25T11:01:29.148Z,19.66
2019-04-25T11:04:02.494Z,19.60
2019-04-25T11:06:30.109Z,20.14
2019-04-25T11:08:57.869Z,19.13
2019-04-25T11:11:26.618Z,21.16
2019-04-25T11:13:55.989Z,20.18
2019-04-25T11:16:24.230Z,20.85
2019-04-25T11:18:53.120Z,20.48
2019-04-25T11:21:21.807Z,21.42
2019-04-25T11:23:50.468Z,18.49
2019-04-25T11:26:18.232Z,18.83
2019-04-25T11:28:45.999Z,19.25
2019-04-25T11:31:24.198Z,20.09
2019-04-25T11:33:51.949Z,22.56
2019-04-25T11:36:19.624Z,19.36
2019-04-25T11:39:19.048Z,21.22
2019-04-25T11:41:48.214Z,20.31
2019-04-25T11:44:17.503Z,20.37
2019-04-25T11:46:45.792Z,20.74
2019-04-25T11:49:15.391Z,22.54
2019-04-25T11:51:44.743Z,22.72
2019-04-25T11:54:13.888Z,20.22
2019-04-25T11:56:42.673Z,21.61
2019-04-25T11:59:11.026Z,21.53
2019-04-25T12:01:38.566Z,23.04
2019-04-25T12:04:06.318Z,24.14
2019-04-25T12:06:34.023Z,23.12
2019-04-25T12:09:01.603Z,21.54
2019-04-25T12:11:31.038Z,22.35
2019-04-25T12:13:58.749Z,23.00
2019-04-25T12:16:26.489Z,23.12
2019-04-25T12:18:56.079Z,22.92
2019-04-25T12:21:24.008Z,22.33
2019-04-25T12:23:51.793Z,21.60
2019-04-25T12:26:19.346Z,22.92
2019-04-25T12:28:47.278Z,23.39
2019-04-25T12:31:14.897Z,22.32
2019-04-25T12:33:43.426Z,23.84
2019-04-25T12:36:13.580Z,24.87
2019-04-25T12:38:41.425Z,24.70
2019-04-25T12:41:08.946Z,23.18
2019-04-25T12:43:38.537Z,22.42
2019-04-25T12:46:11.930Z,21.78
2019-04-25T12:48:39.525Z,23.12
2019-04-25T12:51:07.115Z,22.80
2019-04-25T12:53:35.164Z,22.45
2019-04-25T12:56:04.309Z,21.43
2019-04-25T12:58:33.394Z,22.77
2019-04-25T13:01:01.864Z,23.17
2019-04-25T13:03:30.699Z,21.56
2019-04-25T13:05:59.385Z,23.15
2019-04-25T13:08:27.120Z,22.33
2019-04-25T13:11:07.334Z,22.98
2019-04-25T13:13:24.403Z,22.36
2019-04-25T13:15:53.279Z,23.08
2019-04-25T13:18:21.099Z,21.89
2019-04-25T13:20:48.718Z,22.87
2019-04-25T13:23:16.576Z,23.31
2019-04-25T13:25:44.321Z,23.65
2019-04-25T13:28:45.078Z,24.24
2019-04-25T13:31:29.055Z,25.36
2019-04-25T13:34:05.901Z,25.90
2019-04-25T13:36:34.660Z,26.45
2019-04-25T13:39:05.560Z,25.76
2019-04-25T13:41:35.103Z,25.41
2019-04-25T13:44:03.522Z,25.71
2019-04-25T13:46:34.307Z,25.43
2019-04-25T13:49:04.245Z,26.18
2019-04-25T13:51:33.043Z,26.01
2019-04-25T13:54:00.935Z,26.87
2019-04-25T13:56:28.747Z,27.41
2019-04-25T13:58:56.483Z,28.38
2019-04-25T14:01:24.929Z,28.11
2019-04-25T14:03:56.565Z,28.99
2019-04-25T14:06:24.251Z,29.71
2019-04-25T14:08:53.408Z,28.75
2019-04-25T14:11:24.096Z,29.70
2019-04-25T14:13:52.053Z,29.88
2019-04-25T14:16:30.236Z,29.13
2019-04-25T14:19:16.163Z,28.98
2019-04-25T14:21:44.325Z,30.39
2019-04-25T14:24:20.216Z,29.64
2019-04-25T14:26:41.449Z,31.69
2019-04-25T14:29:09.030Z,29.98
2019-04-25T14:31:45.153Z,30.33
2019-04-25T14:34:06.156Z,30.24
2019-04-25T14:36:34.547Z,30.82
2019-04-25T14:39:02.296Z,30.67
2019-04-25T14:41:32.369Z,30.26
2019-04-25T14:44:00.009Z,30.56
2019-04-25T14:46:27.833Z,30.81
2019-04-25T14:48:55.373Z,31.26
2019-04-25T14:51:24.093Z,32.29
2019-04-25T14:53:51.637Z,32.82
2019-04-25T14:56:36.916Z,32.03
2019-04-25T14:59:05.052Z,30.88
2019-04-25T15:01:44.447Z,31.78
2019-04-25T15:04:04.054Z,32.36
2019-04-25T15:06:32.051Z,32.07
2019-04-25T15:08:59.910Z,32.89
2019-04-25T15:11:27.573Z,32.63
2019-04-25T15:13:55.279Z,31.93
2019-04-25T15:16:24.818Z,31.95
2019-04-25T15:18:52.580Z,32.51
2019-04-25T15:21:20.206Z,32.95
2019-04-25T15:23:59.611Z,31.86
2019-04-25T15:26:17.383Z,32.18
2019-04-25T15:28:44.982Z,33.01
2019-04-25T15:31:12.547Z,32.53
2019-04-25T15:33:40.113Z,33.28
2019-04-25T15:36:13.902Z,33.04
2019-04-25T15:38:52.449Z,32.58
2019-04-25T15:41:35.847Z,33.26
2019-04-25T15:44:21.778Z,33.94
2019-04-25T15:46:50.904Z,34.25
2019-04-25T15:49:18.579Z,34.00
2019-04-25T15:51:46.146Z,33.81
2019-04-25T15:54:13.842Z,34.08
2019-04-25T15:56:41.567Z,34.37
2019-04-25T15:59:09.348Z,34.52
2019-04-25T16:01:36.949Z,35.24
2019-04-25T16:04:04.609Z,35.34
2019-04-25T16:06:32.278Z,36.24
2019-04-25T16:09:00.020Z,35.85
2019-04-25T16:11:28.039Z,35.97
2019-04-25T16:13:55.826Z,36.49
2019-04-25T16:16:23.540Z,36.32
2019-04-25T16:18:51.631Z,37.06
2019-04-25T16:21:19.356Z,36.29
2019-04-25T16:23:47.032Z,36.53
2019-04-25T16:26:14.857Z,37.56
2019-04-25T16:28:43.969Z,37.94
2019-04-25T16:31:14.112Z,37.63
2019-04-25T16:33:42.117Z,38.00
2019-04-25T16:36:09.708Z,38.01
2019-04-25T16:38:37.420Z,38.11
2019-04-25T16:41:05.277Z,38.38
2019-04-25T16:43:36.251Z,38.49
2019-04-25T16:46:03.977Z,38.78
2019-04-25T16:48:31.582Z,38.82
2019-04-25T16:51:00.023Z,38.84
2019-04-25T16:53:27.620Z,39.36
2019-04-25T16:55:55.202Z,39.76
2019-04-25T16:58:23.383Z,38.84
2019-04-25T17:00:58.610Z,39.63
2019-04-25T17:03:26.916Z,39.54
2019-04-25T17:05:54.726Z,39.29
2019-04-25T17:08:22.458Z,39.81
2019-04-25T17:10:50.037Z,39.83
2019-04-25T17:13:17.957Z,40.18
2019-04-25T17:16:06.853Z,40.73
2019-04-25T17:18:43.181Z,40.54
2019-04-25T17:21:11.778Z,40.27
2019-04-25T17:23:39.703Z,40.74
2019-04-25T17:26:07.555Z,41.12
2019-04-25T17:28:39.163Z,41.85
2019-04-25T17:31:29.389Z,41.89
2019-04-25T17:34:05.155Z,41.72
2019-04-25T17:36:40.763Z,43.15
2019-04-25T17:39:42.187Z,42.74
2019-04-25T17:42:11.930Z,41.88
2019-04-25T17:44:40.380Z,42.49
2019-04-25T17:47:09.228Z,43.22
2019-04-25T17:49:36.896Z,44.39
2019-04-25T17:52:04.526Z,45.19
2019-04-25T17:54:32.917Z,45.21
2019-04-25T17:57:00.681Z,46.76
2019-04-25T17:59:28.342Z,47.86
2019-04-25T18:01:57.849Z,50.18
2019-04-25T18:04:25.571Z,49.83
2019-04-25T18:06:53.281Z,50.21
2019-04-25T18:09:20.934Z,52.44
2019-04-25T18:11:48.632Z,53.06
2019-04-25T18:14:16.280Z,53.62
2019-04-25T18:16:45.552Z,53.54
2019-04-25T18:19:35.158Z,49.72
2019-04-25T18:22:41.249Z,53.21
2019-04-25T18:25:35.623Z,53.45
2019-04-25T18:28:17.003Z,55.01
2019-04-25T18:30:45.617Z,53.08
2019-04-25T18:33:29.054Z,53.61
2019-04-25T18:36:23.169Z,52.71
2019-04-25T18:38:59.862Z,52.82
2019-04-25T18:41:32.535Z,52.28
2019-04-25T18:44:01.602Z,51.75
2019-04-25T18:46:34.108Z,53.63
2019-04-25T18:49:01.730Z,52.18
2019-04-25T18:51:29.322Z,52.25
2019-04-25T18:54:07.982Z,53.30
2019-04-25T18:56:56.451Z,52.17
2019-04-25T18:59:55.550Z,52.37
2019-04-25T19:02:46.025Z,51.09
2019-04-25T19:05:32.173Z,50.17
2019-04-25T19:08:00.069Z,49.40
2019-04-25T19:10:27.711Z,49.34
2019-04-25T19:12:55.400Z,49.45
2019-04-25T19:15:23.088Z,50.62
2019-04-25T19:17:50.821Z,50.90
2019-04-25T19:20:18.524Z,48.90
2019-04-25T19:22:46.226Z,49.19
2019-04-25T19:25:13.896Z,48.87
2019-04-25T19:27:42.103Z,48.48
2019-04-25T19:30:12.251Z,48.74
2019-04-25T19:32:40.622Z,49.13
2019-04-25T19:35:09.597Z,49.03
2019-04-25T19:37:38.296Z,49.85
2019-04-25T19:40:24.370Z,51.57
2019-04-25T19:42:55.543Z,52.28
2019-04-25T19:45:24.313Z,53.08
2019-04-25T19:47:51.960Z,53.73
2019-04-25T19:50:19.521Z,54.70
2019-04-25T19:52:47.617Z,55.15
2019-04-25T19:55:15.199Z,55.17
2019-04-25T19:57:43.768Z,53.88
2019-04-25T20:00:11.763Z,55.18
2019-04-25T20:03:04.740Z,55.87
2019-04-25T20:05:39.725Z,55.38
2019-04-25T20:08:29.756Z,53.73
2019-04-25T20:11:00.832Z,53.36
2019-04-25T20:13:28.468Z,52.24
2019-04-25T20:15:56.005Z,52.17
2019-04-25T20:18:23.664Z,52.52
2019-04-25T20:20:52.023Z,51.71
2019-04-25T20:23:19.770Z,51.48
2019-04-25T20:25:48.259Z,50.50
2019-04-25T20:28:15.897Z,50.40
2019-04-25T20:30:45.429Z,50.44
2019-04-25T20:33:13.089Z,50.65
2019-04-25T20:35:41.060Z,51.13
2019-04-25T20:38:08.732Z,51.46
2019-04-25T20:40:36.303Z,51.07
2019-04-25T20:43:03.852Z,51.16
2019-04-25T20:45:33.195Z,51.57
2019-04-25T20:48:00.794Z,52.09
2019-04-25T20:50:28.421Z,51.85
2019-04-25T20:52:56.083Z,52.31
2019-04-25T20:55:24.965Z,52.08
2019-04-25T20:57:53.258Z,52.01
2019-04-25T21:00:41.059Z,51.59
2019-04-25T21:03:08.954Z,52.07
2019-04-25T21:05:36.537Z,51.81
2019-04-25T21:08:04.235Z,51.78
2019-04-25T21:10:31.912Z,52.08
2019-04-25T21:12:59.882Z,52.42
2019-04-25T21:15:38.767Z,52.28
2019-04-25T21:18:28.469Z,52.92
2019-04-25T21:20:57.061Z,52.34
2019-04-25T21:23:24.910Z,52.09
2019-04-25T21:25:52.970Z,52.68
2019-04-25T21:28:20.677Z,53.12
2019-04-25T21:30:48.432Z,52.94
2019-04-25T21:33:16.139Z,52.95
2019-04-25T21:35:44.002Z,53.34
2019-04-25T21:38:11.960Z,53.07
2019-04-25T21:41:05.004Z,53.05
2019-04-25T21:43:36.762Z,53.35
2019-04-25T21:46:04.724Z,53.02
2019-04-25T21:48:32.747Z,55.09
2019-04-25T21:51:20.796Z,54.44
2019-04-25T21:53:48.596Z,54.54
2019-04-25T21:56:16.377Z,54.55
2019-04-25T21:58:44.141Z,54.47
2019-04-25T22:01:16.989Z,54.33
2019-04-25T22:03:44.927Z,54.43
2019-04-25T22:06:12.919Z,54.64
2019-04-25T22:08:40.626Z,55.42
2019-04-25T22:11:08.272Z,55.83
2019-04-25T22:13:36.367Z,55.74
2019-04-25T22:16:04.606Z,55.20
2019-04-25T22:18:34.502Z,55.60
2019-04-25T22:21:02.635Z,55.13
2019-04-25T22:23:30.421Z,54.94
2019-04-25T22:25:58.849Z,55.13
2019-04-25T22:28:26.991Z,55.08
2019-04-25T22:30:57.859Z,55.52
2019-04-25T22:33:55.574Z,56.38
2019-04-25T22:36:23.717Z,58.65
2019-04-25T22:39:09.261Z,58.50
2019-04-25T22:41:39.557Z,58.87
2019-04-25T22:44:08.809Z,59.11
2019-04-25T22:46:36.832Z,59.71
2019-04-25T22:49:05.561Z,58.96
2019-04-25T22:51:33.350Z,59.82
2019-04-25T22:54:03.402Z,60.35
2019-04-25T22:56:31.080Z,60.47
2019-04-25T22:58:58.616Z,61.37
2019-04-25T23:01:57.778Z,60.50
2019-04-25T23:05:09.205Z,60.55
2019-04-25T23:07:33.551Z,61.67
2019-04-25T23:10:01.965Z,62.06
2019-04-25T23:12:30.890Z,62.85
2019-04-25T23:14:58.543Z,63.11
2019-04-25T23:17:26.218Z,63.13
2019-04-25T23:19:53.903Z,63.91
2019-04-25T23:22:21.421Z,64.45
2019-04-25T23:24:55.473Z,64.59
2019-04-25T23:27:41.747Z,64.72
2019-04-25T23:30:10.847Z,64.97
2019-04-25T23:32:39.056Z,65.50
2019-04-25T23:35:22.152Z,65.93
2019-04-25T23:37:36.084Z,65.69
2019-04-25T23:40:05.156Z,66.52
2019-04-25T23:42:33.921Z,67.67
2019-04-25T23:45:03.414Z,66.71
2019-04-25T23:47:30.919Z,66.97
2019-04-25T23:49:58.747Z,66.97
2019-04-25T23:52:26.264Z,67.83
2019-04-25T23:54:54.247Z,67.72
2019-04-25T23:57:22.206Z,67.96
2019-04-25T23:59:49.789Z,68.44
